createdAt,value
2017-07-09T03:31:10.735Z,22.50
2017-07-09T03:33:38.437Z,22.50
2017-07-09T03:36:06.072Z,22.60
2017-07-09T03:38:34.129Z,22.60
2017-07-09T03:41:02.532Z,22.70
2017-07-09T03:43:30.190Z,22.70
2017-07-09T03:45:58.248Z,22.80
2017-07-09T03:48:25.928Z,22.60
2017-07-09T03:50:53.579Z,22.60
2017-07-09T03:53:21.635Z,22.60
2017-07-09T03:55:50.029Z,22.60
2017-07-09T03:58:17.706Z,22.50
2017-07-09T04:00:45.736Z,22.60
2017-07-09T04:03:14.156Z,22.80
2017-07-09T04:05:41.814Z,22.70
2017-07-09T04:08:09.876Z,22.80
2017-07-09T04:10:37.533Z,22.90
2017-07-09T04:13:05.204Z,22.80
2017-07-09T04:15:33.218Z,22.80
2017-07-09T04:18:00.866Z,22.70
2017-07-09T04:20:28.538Z,22.80
2017-07-09T04:22:56.563Z,22.80
2017-07-09T04:25:24.216Z,22.70
2017-07-09T04:27:51.867Z,22.50
2017-07-09T04:30:20.667Z,22.50
2017-07-09T04:32:48.333Z,22.50
2017-07-09T04:35:15.995Z,22.50
2017-07-09T04:37:44.063Z,22.60
2017-07-09T04:40:11.692Z,22.70
2017-07-09T04:42:39.340Z,22.80
2017-07-09T04:45:07.339Z,22.80
2017-07-09T04:47:35.755Z,22.80
2017-07-09T04:50:03.410Z,22.80
2017-07-09T04:52:31.380Z,22.80
2017-07-09T04:54:59.036Z,22.90
2017-07-09T04:57:26.688Z,22.90
2017-07-09T04:59:54.739Z,22.90
2017-07-09T05:02:23.168Z,23.00
2017-07-09T05:04:50.810Z,22.90
2017-07-09T05:07:18.879Z,23.00
2017-07-09T05:09:46.573Z,23.00
2017-07-09T05:12:14.225Z,22.90
2017-07-09T05:14:42.279Z,22.90
2017-07-09T05:17:09.929Z,22.80
2017-07-09T05:19:38.351Z,23.00
2017-07-09T05:22:06.464Z,23.00
2017-07-09T05:24:34.873Z,23.10
2017-07-09T05:27:02.532Z,23.10
2017-07-09T05:29:30.577Z,23.20
2017-07-09T05:31:58.970Z,23.50
2017-07-09T05:34:27.390Z,23.70
2017-07-09T05:36:55.416Z,23.70
2017-07-09T05:39:23.833Z,23.50
2017-07-09T05:41:51.492Z,23.60
2017-07-09T05:44:19.541Z,23.50
2017-07-09T05:46:47.181Z,23.50
2017-07-09T05:49:15.598Z,23.80
2017-07-09T05:51:43.645Z,23.80
2017-07-09T05:54:11.300Z,23.90
2017-07-09T05:56:38.942Z,24.10
2017-07-09T05:59:07.028Z,24.40
2017-07-09T06:01:35.432Z,24.20
2017-07-09T06:04:03.068Z,24.20
2017-07-09T06:06:31.867Z,24.30
2017-07-09T06:09:00.308Z,24.40
2017-07-09T06:11:27.934Z,24.40
2017-07-09T06:13:55.989Z,23.90
2017-07-09T06:16:23.664Z,23.80
2017-07-09T06:18:52.043Z,23.50
2017-07-09T06:21:20.104Z,23.40
2017-07-09T06:23:47.755Z,23.40
2017-07-09T06:26:16.173Z,23.90
2017-07-09T06:28:44.164Z,23.80
2017-07-09T06:31:11.855Z,23.70
2017-07-09T06:33:40.679Z,23.80
2017-07-09T06:36:08.742Z,23.80
2017-07-09T06:38:36.374Z,24.20
2017-07-09T06:41:04.798Z,24.80
2017-07-09T06:43:33.336Z,24.80
2017-07-09T06:46:00.954Z,24.90
2017-07-09T06:48:28.600Z,25.20
2017-07-09T06:50:56.655Z,25.30
2017-07-09T06:53:24.299Z,25.20
2017-07-09T06:55:52.702Z,25.70
2017-07-09T06:58:20.777Z,25.60
2017-07-09T07:00:48.416Z,25.80
2017-07-09T07:03:16.050Z,25.80
2017-07-09T07:05:44.037Z,25.90
2017-07-09T07:08:12.450Z,26.30
2017-07-09T07:10:40.103Z,26.30
2017-07-09T07:13:08.140Z,26.50
2017-07-09T07:15:35.788Z,26.30
2017-07-09T07:18:03.454Z,26.40
2017-07-09T07:20:31.551Z,26.30
2017-07-09T07:22:59.969Z,26.20
2017-07-09T07:25:27.609Z,26.10
2017-07-09T07:27:55.898Z,25.70
2017-07-09T07:30:23.989Z,25.70
2017-07-09T07:32:51.748Z,25.70
2017-07-09T07:35:19.737Z,25.30
2017-07-09T07:37:47.379Z,24.90
2017-07-09T07:40:15.037Z,24.80
2017-07-09T07:42:43.052Z,24.50
2017-07-09T07:45:11.184Z,24.20
2017-07-09T07:47:38.830Z,23.90
2017-07-09T07:50:06.876Z,23.90
2017-07-09T07:52:35.277Z,24.40
2017-07-09T07:55:03.067Z,24.40
2017-07-09T07:57:32.316Z,24.60
2017-07-09T08:00:00.970Z,24.80
2017-07-09T08:02:28.666Z,24.80
2017-07-09T08:04:57.611Z,24.60
2017-07-09T08:07:25.277Z,24.60
2017-07-09T08:09:52.932Z,24.50
2017-07-09T08:12:20.974Z,24.20
2017-07-09T08:14:48.749Z,24.20
2017-07-09T08:17:16.492Z,24.30
2017-07-09T08:19:44.528Z,24.40
2017-07-09T08:22:12.295Z,24.60
2017-07-09T08:24:39.944Z,24.80
2017-07-09T08:27:07.938Z,25.10
2017-07-09T08:29:36.350Z,25.40
2017-07-09T08:32:04.013Z,25.40
2017-07-09T08:34:32.078Z,25.40
2017-07-09T08:36:59.729Z,25.40
2017-07-09T08:39:27.627Z,25.70
2017-07-09T08:41:55.832Z,25.60
2017-07-09T08:44:23.676Z,25.50
2017-07-09T08:46:51.309Z,25.60
2017-07-09T08:49:19.369Z,25.30
2017-07-09T08:51:47.037Z,25.10
2017-07-09T08:54:14.843Z,25.00
2017-07-09T08:56:42.856Z,24.80
2017-07-09T08:59:10.649Z,24.60
2017-07-09T09:01:38.317Z,24.70
2017-07-09T09:04:06.323Z,25.00
2017-07-09T09:06:33.984Z,25.10
2017-07-09T09:09:01.698Z,25.30
2017-07-09T09:11:29.756Z,25.30
2017-07-09T09:13:58.142Z,25.20
2017-07-09T09:16:25.792Z,25.10
2017-07-09T09:18:54.593Z,25.30
2017-07-09T09:21:22.241Z,25.30
2017-07-09T09:23:50.658Z,25.30
2017-07-09T09:26:18.724Z,25.30
2017-07-09T09:28:46.508Z,25.30
2017-07-09T09:31:14.172Z,25.10
2017-07-09T09:33:45.103Z,25.10
2017-07-09T09:36:13.504Z,25.20
2017-07-09T09:38:41.978Z,25.20
2017-07-09T09:41:10.927Z,25.20
2017-07-09T09:43:38.591Z,25.50
2017-07-09T09:46:06.249Z,25.60
2017-07-09T09:48:35.536Z,25.70
2017-07-09T09:51:04.061Z,25.80
2017-07-09T09:53:31.719Z,25.80
2017-07-09T09:55:59.746Z,25.80
2017-07-09T09:58:28.188Z,25.80
2017-07-09T10:00:56.691Z,25.80
2017-07-09T10:03:26.228Z,25.70
2017-07-09T10:05:54.176Z,25.70
2017-07-09T10:08:21.894Z,25.70
2017-07-09T10:10:50.123Z,25.80
2017-07-09T10:13:18.637Z,25.80
2017-07-09T10:28:46.671Z,25.80
2017-07-09T10:31:14.336Z,24.90
2017-07-09T10:33:42.948Z,25.10
2017-07-09T10:36:11.120Z,25.50
2017-07-09T10:38:39.043Z,25.80
2017-07-09T10:41:07.445Z,26.20
2017-07-09T10:43:35.717Z,26.20
2017-07-09T10:46:03.367Z,26.50
2017-07-09T10:48:31.775Z,27.00
2017-07-09T10:50:59.760Z,27.00
2017-07-09T10:53:27.620Z,26.90
2017-07-09T10:55:55.267Z,26.80
2017-07-09T10:58:23.333Z,26.70
2017-07-09T11:00:50.985Z,26.80
2017-07-09T11:03:19.403Z,26.90
2017-07-09T11:05:47.438Z,26.90
2017-07-09T11:08:15.288Z,27.00
2017-07-09T11:10:43.824Z,27.30
2017-07-09T11:13:11.954Z,27.30
2017-07-09T11:15:40.375Z,27.60
2017-07-09T11:18:08.022Z,27.60
2017-07-09T11:20:36.064Z,27.70
2017-07-09T11:23:03.700Z,28.10
2017-07-09T11:25:31.334Z,28.90
2017-07-09T11:27:59.364Z,29.50
2017-07-09T11:30:27.085Z,29.80
2017-07-09T11:32:54.709Z,29.90
2017-07-09T11:35:22.746Z,30.10
2017-07-09T11:37:50.400Z,30.00
2017-07-09T11:40:18.820Z,29.40
2017-07-09T11:42:46.856Z,29.40
2017-07-09T11:45:15.270Z,29.40
2017-07-09T11:47:42.978Z,29.40
2017-07-09T11:50:10.983Z,29.60
2017-07-09T11:52:38.655Z,29.50
2017-07-09T11:55:06.396Z,29.10
2017-07-09T11:57:35.204Z,29.30
2017-07-09T12:00:02.835Z,29.30
2017-07-09T12:02:30.485Z,29.40
2017-07-09T12:04:58.584Z,29.50
2017-07-09T12:07:26.225Z,29.50
2017-07-09T12:09:53.862Z,29.70
2017-07-09T12:12:21.819Z,29.90
2017-07-09T12:14:49.480Z,30.00
2017-07-09T12:17:18.053Z,29.90
2017-07-09T12:19:46.073Z,29.80
2017-07-09T12:22:13.721Z,29.70
2017-07-09T12:24:41.368Z,29.50
2017-07-09T12:27:09.336Z,29.30
2017-07-09T12:29:36.972Z,29.30
2017-07-09T12:32:04.620Z,29.50
2017-07-09T12:34:32.585Z,29.60
2017-07-09T12:37:00.245Z,29.60
2017-07-09T12:39:27.868Z,29.80
2017-07-09T12:41:55.883Z,29.60
2017-07-09T12:44:23.521Z,29.20
2017-07-09T12:46:51.184Z,29.40
2017-07-09T12:49:19.971Z,29.90
2017-07-09T12:51:47.619Z,29.90
2017-07-09T12:54:15.267Z,30.10
2017-07-09T12:56:43.261Z,30.00
2017-07-09T12:59:10.901Z,29.90
2017-07-09T13:01:38.554Z,29.80
2017-07-09T13:04:06.616Z,29.80
2017-07-09T13:06:35.073Z,29.80
2017-07-09T13:09:02.774Z,29.70
2017-07-09T13:11:30.775Z,29.60
2017-07-09T13:13:59.214Z,29.70
2017-07-09T13:16:26.893Z,29.60
2017-07-09T13:18:54.887Z,29.80
2017-07-09T13:21:23.276Z,30.20
2017-07-09T13:23:50.932Z,30.10
2017-07-09T13:26:19.003Z,30.40
2017-07-09T13:28:46.665Z,30.70
2017-07-09T13:31:14.335Z,30.70
2017-07-09T13:33:42.340Z,30.70
2017-07-09T13:36:10.525Z,30.80
2017-07-09T13:38:38.180Z,30.90
2017-07-09T13:41:06.232Z,31.00
2017-07-09T13:43:33.893Z,31.00
2017-07-09T13:46:01.547Z,31.00
2017-07-09T13:48:29.567Z,31.20
2017-07-09T13:50:57.241Z,31.20
2017-07-09T13:53:24.902Z,31.00
2017-07-09T13:55:52.959Z,30.90
2017-07-09T13:58:20.596Z,30.90
2017-07-09T14:00:48.260Z,30.80
2017-07-09T14:03:16.489Z,30.70
2017-07-09T14:05:44.154Z,30.40
2017-07-09T14:08:12.601Z,29.90
2017-07-09T14:10:41.887Z,29.90
2017-07-09T14:13:09.536Z,29.90
2017-07-09T14:15:37.264Z,30.00
2017-07-09T14:18:06.049Z,30.00
2017-07-09T14:20:34.467Z,30.00
2017-07-09T14:23:02.153Z,29.90
2017-07-09T14:25:30.210Z,29.90
2017-07-09T14:27:57.865Z,29.70
2017-07-09T14:30:25.528Z,29.60
2017-07-09T14:32:53.479Z,29.70
2017-07-09T14:35:21.145Z,29.70
2017-07-09T14:37:48.823Z,29.90
2017-07-09T14:40:16.814Z,29.90
2017-07-09T14:42:44.499Z,30.10
2017-07-09T14:45:12.150Z,30.10
2017-07-09T14:47:40.197Z,30.20
2017-07-09T14:50:07.834Z,30.40
2017-07-09T14:52:35.470Z,30.40
2017-07-09T14:55:03.802Z,30.30
2017-07-09T14:57:31.496Z,30.30
2017-07-09T14:59:59.897Z,30.10
2017-07-09T15:02:27.943Z,30.10
2017-07-09T15:04:55.584Z,30.00
2017-07-09T15:07:23.245Z,30.00
2017-07-09T15:09:51.221Z,30.00
2017-07-09T15:12:18.887Z,30.30
2017-07-09T15:27:46.980Z,30.60
2017-07-09T15:30:14.639Z,29.00
2017-07-09T15:32:42.301Z,29.20
2017-07-09T15:35:10.275Z,29.30
2017-07-09T15:37:37.916Z,29.70
2017-07-09T15:40:06.319Z,30.00
2017-07-09T15:42:34.297Z,29.90
2017-07-09T15:45:01.983Z,29.80
2017-07-09T15:47:29.640Z,29.50
2017-07-09T15:49:57.681Z,29.50
2017-07-09T15:52:25.321Z,29.70
2017-07-09T15:54:53.722Z,29.70
2017-07-09T15:57:21.782Z,29.70
2017-07-09T15:59:49.437Z,29.70
2017-07-09T16:02:17.853Z,29.40
2017-07-09T16:04:45.895Z,29.40
2017-07-09T16:07:13.527Z,29.30
2017-07-09T16:09:41.260Z,29.20
2017-07-09T16:12:09.282Z,29.10
2017-07-09T16:14:37.713Z,29.20
2017-07-09T16:17:05.347Z,29.20
2017-07-09T16:19:33.415Z,29.10
2017-07-09T16:22:01.066Z,29.00
2017-07-09T16:24:29.465Z,28.80
2017-07-09T16:26:57.441Z,28.80
2017-07-09T16:29:25.119Z,28.70
2017-07-09T16:31:52.757Z,28.50
2017-07-09T16:34:20.791Z,28.40
2017-07-09T16:36:48.466Z,28.40
2017-07-09T16:39:16.866Z,28.30
2017-07-09T16:41:44.849Z,28.20
2017-07-09T16:44:12.513Z,28.20
2017-07-09T16:46:40.166Z,28.30
2017-07-09T16:49:08.171Z,28.30
2017-07-09T16:51:35.867Z,28.20
2017-07-09T16:54:04.294Z,28.30
2017-07-09T16:56:32.434Z,28.30
2017-07-09T16:59:00.083Z,28.30
2017-07-09T17:01:28.489Z,28.00
2017-07-09T17:03:56.455Z,28.00
2017-07-09T17:06:24.127Z,27.90
2017-07-09T17:08:51.841Z,27.80
2017-07-09T17:11:19.854Z,27.90
2017-07-09T17:13:47.534Z,27.80
2017-07-09T17:16:15.221Z,27.80
2017-07-09T17:18:43.211Z,27.70
2017-07-09T17:21:11.096Z,27.70
2017-07-09T17:23:39.525Z,27.60
2017-07-09T17:26:07.504Z,27.60
2017-07-09T17:28:35.144Z,27.60
2017-07-09T17:31:02.804Z,27.60
2017-07-09T17:33:30.946Z,27.50
2017-07-09T17:35:58.743Z,27.50
2017-07-09T17:38:26.433Z,27.40
2017-07-09T17:40:55.990Z,27.20
2017-07-09T17:56:24.616Z,27.20
2017-07-09T17:58:52.488Z,26.10
2017-07-09T18:01:21.382Z,26.30
2017-07-09T18:03:49.379Z,26.50
2017-07-09T18:06:17.051Z,26.60
2017-07-09T18:08:44.722Z,26.60
2017-07-09T18:11:12.794Z,26.50
2017-07-09T18:13:40.460Z,26.40
2017-07-09T18:16:08.614Z,26.40
2017-07-09T18:18:36.698Z,26.50
2017-07-09T18:21:05.235Z,26.50
2017-07-09T18:23:32.910Z,26.40
2017-07-09T18:26:02.218Z,26.10
2017-07-09T18:28:31.176Z,26.20
2017-07-09T18:31:01.930Z,26.20
2017-07-09T18:33:30.266Z,26.30
2017-07-09T18:35:57.955Z,26.40
2017-07-09T18:38:25.615Z,26.40
2017-07-09T18:40:53.745Z,26.40
2017-07-09T18:43:21.536Z,26.50
2017-07-09T18:45:49.236Z,26.50
2017-07-09T18:48:18.201Z,26.50
2017-07-09T18:50:45.868Z,26.50
2017-07-09T18:53:13.566Z,26.60
2017-07-09T18:55:42.343Z,26.60
2017-07-09T18:58:10.778Z,26.50
2017-07-09T19:00:38.444Z,26.50
2017-07-09T19:03:06.571Z,26.30
2017-07-09T19:05:35.005Z,26.10
2017-07-09T19:08:02.657Z,26.10
2017-07-09T19:10:30.654Z,26.10
2017-07-09T19:12:58.402Z,26.00
2017-07-09T19:15:26.075Z,26.00
2017-07-09T19:17:54.195Z,26.00
2017-07-09T19:20:22.214Z,26.00
2017-07-09T19:22:49.877Z,26.00
2017-07-09T19:25:17.865Z,26.00
2017-07-09T19:27:45.588Z,26.00
2017-07-09T19:30:13.294Z,25.90
2017-07-09T19:32:41.380Z,25.80
2017-07-09T19:35:09.073Z,25.80
2017-07-09T19:37:36.742Z,25.70
2017-07-09T19:40:04.729Z,25.60
2017-07-09T19:42:32.369Z,25.50
2017-07-09T19:45:00.055Z,25.50
2017-07-09T19:47:28.134Z,25.50
2017-07-09T19:49:55.969Z,25.50
2017-07-09T19:52:23.625Z,25.40
2017-07-09T19:54:51.690Z,25.30
2017-07-09T19:57:19.362Z,25.20
2017-07-09T19:59:47.047Z,25.20
2017-07-09T20:02:15.067Z,25.10
2017-07-09T20:04:43.489Z,25.10
2017-07-09T20:07:11.119Z,25.10
2017-07-09T20:09:39.101Z,25.20
2017-07-09T20:12:06.760Z,25.20
2017-07-09T20:14:34.433Z,25.20
2017-07-09T20:17:02.405Z,25.00
2017-07-09T20:19:30.078Z,24.90
2017-07-09T20:21:57.732Z,25.00
2017-07-09T20:24:25.887Z,25.10
2017-07-09T20:26:53.527Z,25.20
2017-07-09T20:29:22.217Z,25.10
2017-07-09T20:31:51.013Z,24.90
2017-07-09T20:34:19.450Z,24.90
2017-07-09T20:36:47.146Z,24.80
2017-07-09T20:39:15.924Z,25.00
2017-07-09T20:41:44.372Z,25.00
2017-07-09T20:44:12.019Z,25.00
2017-07-09T20:46:40.007Z,24.90
2017-07-09T20:49:07.649Z,24.80
2017-07-09T20:51:35.282Z,24.70
2017-07-09T20:54:03.351Z,24.50
2017-07-09T20:56:31.000Z,24.50
2017-07-09T20:58:59.209Z,24.40
2017-07-09T21:01:28.053Z,24.30
2017-07-09T21:03:56.489Z,24.10
2017-07-09T21:06:24.143Z,24.10
2017-07-09T21:08:52.160Z,24.00
2017-07-09T21:11:19.829Z,23.80
2017-07-09T21:13:48.882Z,23.60
2017-07-09T21:16:16.910Z,23.60
2017-07-09T21:18:44.609Z,23.60
2017-07-09T21:21:12.255Z,23.70
2017-07-09T21:23:40.292Z,23.80
2017-07-09T21:26:08.693Z,23.90
2017-07-09T21:28:36.345Z,23.90
2017-07-09T21:31:04.516Z,23.90
2017-07-09T21:33:32.994Z,24.00
2017-07-09T21:36:01.390Z,24.00
2017-07-09T21:38:29.458Z,24.00
2017-07-09T21:40:57.118Z,24.00
2017-07-09T21:43:24.784Z,24.00
2017-07-09T21:45:52.834Z,24.10
2017-07-09T21:48:21.298Z,24.30
2017-07-09T21:50:48.938Z,24.30
2017-07-09T21:53:16.918Z,24.40
2017-07-09T21:55:44.554Z,24.50
2017-07-09T21:58:12.213Z,24.60
2017-07-09T22:00:40.250Z,24.60
2017-07-09T22:03:08.646Z,24.50
2017-07-09T22:05:36.310Z,24.50
2017-07-09T22:08:04.293Z,24.50
2017-07-09T22:10:31.950Z,24.50
2017-07-09T22:12:59.605Z,24.50
2017-07-09T22:15:27.635Z,24.50
2017-07-09T22:17:55.270Z,24.50
2017-07-09T22:20:22.913Z,24.40
2017-07-09T22:22:50.937Z,24.50
2017-07-09T22:25:19.345Z,24.40
2017-07-09T22:27:46.981Z,24.30
